sensor_id;sensor_type;location;lat;lon;timestamp;P1;durP1;ratioP1;P2;durP2;ratioP2
9789;SDS011;4934;50.852;8.098;2022-12-05T00:01:57;23.85;;;10.02;;
9789;SDS011;4934;50.852;8.098;2022-12-05T00:04:22;26.38;;;10.73;;
9789;SDS011;4934;50.852;8.098;2022-12-05T00:06:48;24.08;;;10.55;;
9789;SDS011;4934;50.852;8.098;2022-12-05T00:09:13;23.60;;;10.75;;
9789;SDS011;4934;50.852;8.098;2022-12-05T00:11:40;22.77;;;9.50;;
9789;SDS011;4934;50.852;8.098;2022-12-05T00:14:07;24.85;;;10.75;;
9789;SDS011;4934;50.852;8.098;2022-12-05T00:16:34;28.08;;;11.45;;
9789;SDS011;4934;50.852;8.098;2022-12-05T00:19:02;27.27;;;12.13;;
9789;SDS011;4934;50.852;8.098;2022-12-05T00:21:29;29.23;;;11.63;;
9789;SDS011;4934;50.852;8.098;2022-12-05T00:23:57;24.55;;;10.55;;
9789;SDS011;4934;50.852;8.098;2022-12-05T00:26:24;23.42;;;10.50;;
9789;SDS011;4934;50.852;8.098;2022-12-05T00:28:51;24.35;;;11.25;;
9789;SDS011;4934;50.852;8.098;2022-12-05T00:31:18;27.15;;;10.55;;
9789;SDS011;4934;50.852;8.098;2022-12-05T00:33:45;26.77;;;11.07;;
9789;SDS011;4934;50.852;8.098;2022-12-05T00:36:27;26.27;;;10.65;;
9789;SDS011;4934;50.852;8.098;2022-12-05T00:38:54;24.98;;;10.13;;
9789;SDS011;4934;50.852;8.098;2022-12-05T00:41:24;27.30;;;11.13;;
9789;SDS011;4934;50.852;8.098;2022-12-05T00:43:51;26.20;;;10.30;;
9789;SDS011;4934;50.852;8.098;2022-12-05T00:46:18;26.07;;;10.87;;
9789;SDS011;4934;50.852;8.098;2022-12-05T00:48:45;21.40;;;7.90;;
9789;SDS011;4934;50.852;8.098;2022-12-05T00:51:12;27.63;;;11.55;;
9789;SDS011;4934;50.852;8.098;2022-12-05T00:53:40;23.02;;;9.93;;
9789;SDS011;4934;50.852;8.098;2022-12-05T00:56:08;23.83;;;10.18;;
9789;SDS011;4934;50.852;8.098;2022-12-05T00:58:35;25.77;;;10.25;;
9789;SDS011;4934;50.852;8.098;2022-12-05T01:01:09;27.45;;;10.15;;
9789;SDS011;4934;50.852;8.098;2022-12-05T01:03:35;24.10;;;10.20;;
9789;SDS011;4934;50.852;8.098;2022-12-05T01:06:01;27.85;;;10.07;;
9789;SDS011;4934;50.852;8.098;2022-12-05T01:08:27;25.25;;;11.02;;
9789;SDS011;4934;50.852;8.098;2022-12-05T01:10:53;24.42;;;10.38;;
9789;SDS011;4934;50.852;8.098;2022-12-05T01:13:19;21.92;;;9.02;;
9789;SDS011;4934;50.852;8.098;2022-12-05T01:15:46;22.47;;;9.47;;
9789;SDS011;4934;50.852;8.098;2022-12-05T01:18:11;24.90;;;9.02;;
9789;SDS011;4934;50.852;8.098;2022-12-05T01:20:41;21.42;;;8.55;;
9789;SDS011;4934;50.852;8.098;2022-12-05T01:23:06;21.88;;;8.35;;
9789;SDS011;4934;50.852;8.098;2022-12-05T01:25:32;23.05;;;8.70;;
9789;SDS011;4934;50.852;8.098;2022-12-05T01:27:58;21.05;;;8.57;;
9789;SDS011;4934;50.852;8.098;2022-12-05T01:30:24;19.50;;;8.43;;
9789;SDS011;4934;50.852;8.098;2022-12-05T01:32:50;18.67;;;8.13;;
9789;SDS011;4934;50.852;8.098;2022-12-05T01:35:16;21.13;;;8.65;;
9789;SDS011;4934;50.852;8.098;2022-12-05T01:37:42;18.23;;;7.60;;
9789;SDS011;4934;50.852;8.098;2022-12-05T01:40:09;20.40;;;9.25;;
9789;SDS011;4934;50.852;8.098;2022-12-05T01:42:35;19.27;;;8.50;;
9789;SDS011;4934;50.852;8.098;2022-12-05T01:45:06;21.33;;;8.73;;
9789;SDS011;4934;50.852;8.098;2022-12-05T01:47:40;17.20;;;7.78;;
9789;SDS011;4934;50.852;8.098;2022-12-05T01:50:07;21.00;;;7.77;;
9789;SDS011;4934;50.852;8.098;2022-12-05T01:52:33;20.25;;;8.77;;
9789;SDS011;4934;50.852;8.098;2022-12-05T01:55:02;17.08;;;7.82;;
9789;SDS011;4934;50.852;8.098;2022-12-05T01:57:33;19.30;;;7.80;;
9789;SDS011;4934;50.852;8.098;2022-12-05T02:00:00;20.17;;;8.80;;
9789;SDS011;4934;50.852;8.098;2022-12-05T02:02:29;19.87;;;8.43;;
9789;SDS011;4934;50.852;8.098;2022-12-05T02:05:06;22.93;;;8.90;;
9789;SDS011;4934;50.852;8.098;2022-12-05T02:07:38;22.53;;;8.83;;
9789;SDS011;4934;50.852;8.098;2022-12-05T02:10:21;21.75;;;9.20;;
9789;SDS011;4934;50.852;8.098;2022-12-05T02:12:47;21.77;;;9.60;;
9789;SDS011;4934;50.852;8.098;2022-12-05T02:26:22;24.17;;;10.20;;
9789;SDS011;4934;50.852;8.098;2022-12-05T02:34:59;22.50;;;9.40;;
9789;SDS011;4934;50.852;8.098;2022-12-05T02:37:31;38.90;;;13.27;;
9789;SDS011;4934;50.852;8.098;2022-12-05T02:45:32;23.20;;;10.03;;
9789;SDS011;4934;50.852;8.098;2022-12-05T02:48:03;25.80;;;10.67;;
9789;SDS011;4934;50.852;8.098;2022-12-05T02:50:32;21.35;;;9.20;;
9789;SDS011;4934;50.852;8.098;2022-12-05T02:53:06;24.63;;;10.00;;
9789;SDS011;4934;50.852;8.098;2022-12-05T02:55:40;22.90;;;9.67;;
9789;SDS011;4934;50.852;8.098;2022-12-05T02:58:57;22.30;;;9.53;;
9789;SDS011;4934;50.852;8.098;2022-12-05T03:06:15;27.23;;;9.93;;
9789;SDS011;4934;50.852;8.098;2022-12-05T03:09:41;23.65;;;9.10;;
9789;SDS011;4934;50.852;8.098;2022-12-05T03:12:46;18.13;;;8.93;;
9789;SDS011;4934;50.852;8.098;2022-12-05T03:15:17;21.83;;;8.70;;
9789;SDS011;4934;50.852;8.098;2022-12-05T03:18:39;22.03;;;9.10;;
9789;SDS011;4934;50.852;8.098;2022-12-05T03:21:19;21.70;;;9.30;;
9789;SDS011;4934;50.852;8.098;2022-12-05T03:24:10;22.43;;;9.53;;
9789;SDS011;4934;50.852;8.098;2022-12-05T03:26:50;25.07;;;10.33;;
9789;SDS011;4934;50.852;8.098;2022-12-05T03:32:31;20.93;;;9.10;;
9789;SDS011;4934;50.852;8.098;2022-12-05T03:37:45;23.85;;;9.45;;
9789;SDS011;4934;50.852;8.098;2022-12-05T03:43:08;23.58;;;10.05;;
9789;SDS011;4934;50.852;8.098;2022-12-05T03:45:49;29.50;;;11.33;;
9789;SDS011;4934;50.852;8.098;2022-12-05T03:48:37;25.23;;;11.27;;
9789;SDS011;4934;50.852;8.098;2022-12-05T03:57:20;22.93;;;9.60;;
9789;SDS011;4934;50.852;8.098;2022-12-05T04:00:12;23.20;;;9.68;;
9789;SDS011;4934;50.852;8.098;2022-12-05T04:08:06;20.20;;;8.37;;
9789;SDS011;4934;50.852;8.098;2022-12-05T04:10:47;19.63;;;9.37;;
9789;SDS011;4934;50.852;8.098;2022-12-05T04:15:55;29.10;;;10.45;;
9789;SDS011;4934;50.852;8.098;2022-12-05T04:18:50;23.23;;;9.93;;
9789;SDS011;4934;50.852;8.098;2022-12-05T04:21:29;23.70;;;10.83;;
9789;SDS011;4934;50.852;8.098;2022-12-05T04:24:09;26.40;;;11.13;;
9789;SDS011;4934;50.852;8.098;2022-12-05T04:27:03;22.33;;;9.87;;
9789;SDS011;4934;50.852;8.098;2022-12-05T04:29:31;18.17;;;9.50;;
9789;SDS011;4934;50.852;8.098;2022-12-05T04:32:03;23.73;;;10.50;;
9789;SDS011;4934;50.852;8.098;2022-12-05T04:34:48;21.23;;;9.83;;
9789;SDS011;4934;50.852;8.098;2022-12-05T04:37:19;22.77;;;10.27;;
9789;SDS011;4934;50.852;8.098;2022-12-05T04:39:50;28.98;;;9.63;;
9789;SDS011;4934;50.852;8.098;2022-12-05T04:42:29;18.20;;;9.37;;
9789;SDS011;4934;50.852;8.098;2022-12-05T04:44:58;19.60;;;8.38;;
9789;SDS011;4934;50.852;8.098;2022-12-05T04:47:31;21.10;;;9.07;;
9789;SDS011;4934;50.852;8.098;2022-12-05T04:50:03;17.30;;;7.90;;
9789;SDS011;4934;50.852;8.098;2022-12-05T04:52:33;20.40;;;9.00;;
9789;SDS011;4934;50.852;8.098;2022-12-05T04:55:02;21.37;;;8.63;;
9789;SDS011;4934;50.852;8.098;2022-12-05T05:00:20;20.45;;;9.02;;
9789;SDS011;4934;50.852;8.098;2022-12-05T05:05:18;17.47;;;7.83;;
9789;SDS011;4934;50.852;8.098;2022-12-05T05:07:50;13.27;;;7.90;;
9789;SDS011;4934;50.852;8.098;2022-12-05T05:10:24;19.83;;;7.53;;
9789;SDS011;4934;50.852;8.098;2022-12-05T05:12:56;17.47;;;7.57;;
9789;SDS011;4934;50.852;8.098;2022-12-05T05:15:23;16.03;;;7.93;;
9789;SDS011;4934;50.852;8.098;2022-12-05T05:17:49;17.80;;;8.20;;
9789;SDS011;4934;50.852;8.098;2022-12-05T05:20:14;20.17;;;8.47;;
9789;SDS011;4934;50.852;8.098;2022-12-05T05:22:49;19.83;;;8.50;;
9789;SDS011;4934;50.852;8.098;2022-12-05T05:25:19;17.52;;;7.47;;
9789;SDS011;4934;50.852;8.098;2022-12-05T05:27:50;17.00;;;8.20;;
9789;SDS011;4934;50.852;8.098;2022-12-05T05:30:18;20.33;;;8.57;;
9789;SDS011;4934;50.852;8.098;2022-12-05T05:32:46;18.95;;;8.15;;
9789;SDS011;4934;50.852;8.098;2022-12-05T05:35:12;28.60;;;13.63;;
9789;SDS011;4934;50.852;8.098;2022-12-05T05:37:38;25.83;;;10.53;;
9789;SDS011;4934;50.852;8.098;2022-12-05T05:40:05;24.83;;;10.83;;
9789;SDS011;4934;50.852;8.098;2022-12-05T05:42:33;18.27;;;9.18;;
9789;SDS011;4934;50.852;8.098;2022-12-05T05:44:59;22.17;;;10.20;;
9789;SDS011;4934;50.852;8.098;2022-12-05T05:47:24;20.80;;;9.97;;
9789;SDS011;4934;50.852;8.098;2022-12-05T05:49:50;21.57;;;9.20;;
9789;SDS011;4934;50.852;8.098;2022-12-05T05:52:16;23.10;;;10.00;;
9789;SDS011;4934;50.852;8.098;2022-12-05T05:54:41;24.03;;;11.20;;
9789;SDS011;4934;50.852;8.098;2022-12-05T05:57:08;19.33;;;9.93;;
9789;SDS011;4934;50.852;8.098;2022-12-05T05:59:33;23.57;;;9.97;;
9789;SDS011;4934;50.852;8.098;2022-12-05T06:01:59;26.33;;;11.73;;
9789;SDS011;4934;50.852;8.098;2022-12-05T06:04:34;23.30;;;11.33;;
9789;SDS011;4934;50.852;8.098;2022-12-05T06:07:00;21.60;;;10.23;;
9789;SDS011;4934;50.852;8.098;2022-12-05T06:09:26;20.83;;;9.23;;
9789;SDS011;4934;50.852;8.098;2022-12-05T06:11:51;19.00;;;9.07;;
9789;SDS011;4934;50.852;8.098;2022-12-05T06:14:33;19.43;;;8.40;;
9789;SDS011;4934;50.852;8.098;2022-12-05T06:16:59;18.17;;;8.57;;
9789;SDS011;4934;50.852;8.098;2022-12-05T06:19:24;22.93;;;9.30;;
9789;SDS011;4934;50.852;8.098;2022-12-05T06:21:50;27.73;;;10.07;;
9789;SDS011;4934;50.852;8.098;2022-12-05T06:24:18;25.67;;;10.90;;
9789;SDS011;4934;50.852;8.098;2022-12-05T06:26:43;32.67;;;12.77;;
9789;SDS011;4934;50.852;8.098;2022-12-05T06:29:09;29.23;;;12.17;;
9789;SDS011;4934;50.852;8.098;2022-12-05T06:31:35;28.30;;;11.60;;
9789;SDS011;4934;50.852;8.098;2022-12-05T06:34:01;33.87;;;14.00;;
9789;SDS011;4934;50.852;8.098;2022-12-05T06:36:27;28.93;;;11.97;;
9789;SDS011;4934;50.852;8.098;2022-12-05T06:39:04;30.10;;;11.93;;
9789;SDS011;4934;50.852;8.098;2022-12-05T06:41:30;26.10;;;10.93;;
9789;SDS011;4934;50.852;8.098;2022-12-05T06:43:56;21.30;;;9.33;;
9789;SDS011;4934;50.852;8.098;2022-12-05T06:46:22;17.57;;;7.83;;
9789;SDS011;4934;50.852;8.098;2022-12-05T06:48:53;20.80;;;7.80;;
9789;SDS011;4934;50.852;8.098;2022-12-05T06:51:21;19.60;;;8.67;;
9789;SDS011;4934;50.852;8.098;2022-12-05T06:53:48;17.27;;;8.20;;
9789;SDS011;4934;50.852;8.098;2022-12-05T06:56:16;21.00;;;8.03;;
9789;SDS011;4934;50.852;8.098;2022-12-05T06:58:47;16.40;;;7.80;;
9789;SDS011;4934;50.852;8.098;2022-12-05T07:01:28;19.50;;;8.10;;
9789;SDS011;4934;50.852;8.098;2022-12-05T07:04:03;19.57;;;8.50;;
9789;SDS011;4934;50.852;8.098;2022-12-05T07:06:31;21.55;;;9.40;;
9789;SDS011;4934;50.852;8.098;2022-12-05T07:09:15;19.63;;;8.50;;
9789;SDS011;4934;50.852;8.098;2022-12-05T07:14:19;24.33;;;9.53;;
9789;SDS011;4934;50.852;8.098;2022-12-05T07:16:45;19.77;;;8.80;;
9789;SDS011;4934;50.852;8.098;2022-12-05T07:19:13;20.17;;;10.13;;
9789;SDS011;4934;50.852;8.098;2022-12-05T07:21:39;24.10;;;10.02;;
9789;SDS011;4934;50.852;8.098;2022-12-05T07:24:05;21.20;;;10.37;;
9789;SDS011;4934;50.852;8.098;2022-12-05T07:26:38;22.30;;;9.80;;
9789;SDS011;4934;50.852;8.098;2022-12-05T07:29:04;23.30;;;10.03;;
9789;SDS011;4934;50.852;8.098;2022-12-05T07:31:30;25.97;;;11.27;;
9789;SDS011;4934;50.852;8.098;2022-12-05T07:33:57;34.93;;;12.90;;
9789;SDS011;4934;50.852;8.098;2022-12-05T07:36:23;28.33;;;14.07;;
9789;SDS011;4934;50.852;8.098;2022-12-05T07:38:53;30.40;;;13.57;;
9789;SDS011;4934;50.852;8.098;2022-12-05T07:41:22;28.77;;;13.30;;
9789;SDS011;4934;50.852;8.098;2022-12-05T07:43:50;26.47;;;12.27;;
9789;SDS011;4934;50.852;8.098;2022-12-05T07:46:17;31.00;;;13.33;;
9789;SDS011;4934;50.852;8.098;2022-12-05T07:48:43;28.50;;;12.47;;
9789;SDS011;4934;50.852;8.098;2022-12-05T07:51:09;27.37;;;12.90;;
9789;SDS011;4934;50.852;8.098;2022-12-05T07:53:38;25.53;;;12.23;;
9789;SDS011;4934;50.852;8.098;2022-12-05T07:56:07;27.10;;;11.77;;
9789;SDS011;4934;50.852;8.098;2022-12-05T07:58:34;27.60;;;12.60;;
9789;SDS011;4934;50.852;8.098;2022-12-05T08:01:06;25.13;;;11.80;;
9789;SDS011;4934;50.852;8.098;2022-12-05T08:03:33;38.53;;;17.70;;
9789;SDS011;4934;50.852;8.098;2022-12-05T08:06:05;30.67;;;14.03;;
9789;SDS011;4934;50.852;8.098;2022-12-05T08:08:37;24.57;;;11.33;;
9789;SDS011;4934;50.852;8.098;2022-12-05T08:11:04;24.97;;;11.80;;
9789;SDS011;4934;50.852;8.098;2022-12-05T08:13:38;24.93;;;12.17;;
9789;SDS011;4934;50.852;8.098;2022-12-05T08:16:05;30.10;;;13.63;;
9789;SDS011;4934;50.852;8.098;2022-12-05T08:18:32;27.00;;;13.05;;
9789;SDS011;4934;50.852;8.098;2022-12-05T08:21:02;29.63;;;12.57;;
9789;SDS011;4934;50.852;8.098;2022-12-05T08:23:33;25.27;;;12.17;;
9789;SDS011;4934;50.852;8.098;2022-12-05T08:26:00;24.77;;;11.90;;
9789;SDS011;4934;50.852;8.098;2022-12-05T08:31:21;25.00;;;12.17;;
9789;SDS011;4934;50.852;8.098;2022-12-05T08:33:50;19.80;;;9.87;;
9789;SDS011;4934;50.852;8.098;2022-12-05T08:36:17;24.87;;;11.37;;
9789;SDS011;4934;50.852;8.098;2022-12-05T08:38:43;21.17;;;11.23;;
9789;SDS011;4934;50.852;8.098;2022-12-05T08:41:10;19.23;;;10.07;;
9789;SDS011;4934;50.852;8.098;2022-12-05T08:43:38;22.73;;;10.18;;
9789;SDS011;4934;50.852;8.098;2022-12-05T08:46:03;21.60;;;10.13;;
9789;SDS011;4934;50.852;8.098;2022-12-05T08:48:30;24.55;;;12.23;;
9789;SDS011;4934;50.852;8.098;2022-12-05T08:50:59;24.67;;;11.20;;
9789;SDS011;4934;50.852;8.098;2022-12-05T08:53:28;28.03;;;12.63;;
9789;SDS011;4934;50.852;8.098;2022-12-05T08:55:55;31.67;;;15.32;;
9789;SDS011;4934;50.852;8.098;2022-12-05T08:58:30;26.08;;;12.13;;
9789;SDS011;4934;50.852;8.098;2022-12-05T09:01:06;25.98;;;12.98;;
9789;SDS011;4934;50.852;8.098;2022-12-05T09:03:45;31.17;;;14.93;;
9789;SDS011;4934;50.852;8.098;2022-12-05T09:08:41;26.27;;;11.75;;
9789;SDS011;4934;50.852;8.098;2022-12-05T09:11:09;23.47;;;11.03;;
9789;SDS011;4934;50.852;8.098;2022-12-05T09:13:39;26.88;;;12.13;;
9789;SDS011;4934;50.852;8.098;2022-12-05T09:16:15;26.50;;;12.10;;
9789;SDS011;4934;50.852;8.098;2022-12-05T09:18:49;22.83;;;11.40;;
9789;SDS011;4934;50.852;8.098;2022-12-05T09:21:16;19.63;;;10.27;;
9789;SDS011;4934;50.852;8.098;2022-12-05T09:23:48;24.30;;;11.45;;
9789;SDS011;4934;50.852;8.098;2022-12-05T09:29:00;24.05;;;11.98;;
9789;SDS011;4934;50.852;8.098;2022-12-05T09:31:26;20.17;;;11.00;;
9789;SDS011;4934;50.852;8.098;2022-12-05T09:33:54;22.42;;;10.63;;
9789;SDS011;4934;50.852;8.098;2022-12-05T09:36:21;29.20;;;11.95;;
9789;SDS011;4934;50.852;8.098;2022-12-05T09:38:51;23.95;;;11.52;;
9789;SDS011;4934;50.852;8.098;2022-12-05T09:41:23;18.35;;;9.75;;
9789;SDS011;4934;50.852;8.098;2022-12-05T09:49:53;21.75;;;10.85;;
9789;SDS011;4934;50.852;8.098;2022-12-05T09:52:34;25.17;;;11.50;;
9789;SDS011;4934;50.852;8.098;2022-12-05T09:55:10;20.67;;;12.10;;
9789;SDS011;4934;50.852;8.098;2022-12-05T09:57:52;29.17;;;14.40;;
9789;SDS011;4934;50.852;8.098;2022-12-05T10:00:21;31.80;;;15.60;;
9789;SDS011;4934;50.852;8.098;2022-12-05T10:02:57;30.77;;;14.73;;
9789;SDS011;4934;50.852;8.098;2022-12-05T10:06:05;34.92;;;16.13;;
9789;SDS011;4934;50.852;8.098;2022-12-05T10:17:47;26.77;;;14.40;;
9789;SDS011;4934;50.852;8.098;2022-12-05T10:20:22;24.15;;;12.32;;
9789;SDS011;4934;50.852;8.098;2022-12-05T10:25:50;20.77;;;11.02;;
9789;SDS011;4934;50.852;8.098;2022-12-05T10:28:35;20.83;;;10.82;;
9789;SDS011;4934;50.852;8.098;2022-12-05T10:31:07;20.70;;;11.00;;
9789;SDS011;4934;50.852;8.098;2022-12-05T10:33:48;25.75;;;12.45;;
9789;SDS011;4934;50.852;8.098;2022-12-05T10:39:38;26.08;;;11.45;;
9789;SDS011;4934;50.852;8.098;2022-12-05T10:42:16;30.10;;;12.23;;
9789;SDS011;4934;50.852;8.098;2022-12-05T10:45:01;27.83;;;12.40;;
9789;SDS011;4934;50.852;8.098;2022-12-05T10:47:41;28.23;;;11.73;;
9789;SDS011;4934;50.852;8.098;2022-12-05T10:51:00;30.30;;;14.50;;
9789;SDS011;4934;50.852;8.098;2022-12-05T10:53:54;29.83;;;11.50;;
9789;SDS011;4934;50.852;8.098;2022-12-05T10:59:12;24.67;;;11.05;;
9789;SDS011;4934;50.852;8.098;2022-12-05T11:02:01;27.98;;;11.63;;
9789;SDS011;4934;50.852;8.098;2022-12-05T11:05:10;24.33;;;10.70;;
9789;SDS011;4934;50.852;8.098;2022-12-05T11:10:32;26.38;;;10.48;;
9789;SDS011;4934;50.852;8.098;2022-12-05T11:13:00;24.20;;;9.30;;
9789;SDS011;4934;50.852;8.098;2022-12-05T11:15:55;21.35;;;9.07;;
9789;SDS011;4934;50.852;8.098;2022-12-05T11:21:19;26.77;;;9.57;;
9789;SDS011;4934;50.852;8.098;2022-12-05T11:23:45;22.90;;;9.32;;
9789;SDS011;4934;50.852;8.098;2022-12-05T11:26:32;24.98;;;10.43;;
9789;SDS011;4934;50.852;8.098;2022-12-05T11:29:00;23.57;;;10.70;;
9789;SDS011;4934;50.852;8.098;2022-12-05T11:31:28;24.83;;;10.45;;
9789;SDS011;4934;50.852;8.098;2022-12-05T11:36:51;22.50;;;10.27;;
9789;SDS011;4934;50.852;8.098;2022-12-05T11:39:19;23.95;;;11.23;;
9789;SDS011;4934;50.852;8.098;2022-12-05T11:44:30;22.23;;;9.38;;
9789;SDS011;4934;50.852;8.098;2022-12-05T11:47:21;21.23;;;10.05;;
9789;SDS011;4934;50.852;8.098;2022-12-05T12:01:01;19.90;;;9.40;;
9789;SDS011;4934;50.852;8.098;2022-12-05T12:06:52;19.33;;;8.98;;
9789;SDS011;4934;50.852;8.098;2022-12-05T12:21:30;17.60;;;8.15;;
9789;SDS011;4934;50.852;8.098;2022-12-05T12:29:55;16.75;;;8.00;;
9789;SDS011;4934;50.852;8.098;2022-12-05T12:35:52;15.30;;;8.05;;
9789;SDS011;4934;50.852;8.098;2022-12-05T12:38:53;11.55;;;6.65;;
9789;SDS011;4934;50.852;8.098;2022-12-05T12:50:21;14.52;;;7.65;;
9789;SDS011;4934;50.852;8.098;2022-12-05T12:55:52;14.80;;;7.25;;
9789;SDS011;4934;50.852;8.098;2022-12-05T13:01:39;19.45;;;8.63;;
9789;SDS011;4934;50.852;8.098;2022-12-05T13:04:47;18.20;;;8.90;;
9789;SDS011;4934;50.852;8.098;2022-12-05T13:07:17;20.10;;;9.35;;
9789;SDS011;4934;50.852;8.098;2022-12-05T13:12:39;17.52;;;9.45;;
9789;SDS011;4934;50.852;8.098;2022-12-05T13:17:59;21.05;;;10.55;;
9789;SDS011;4934;50.852;8.098;2022-12-05T13:20:27;26.38;;;10.32;;
9789;SDS011;4934;50.852;8.098;2022-12-05T13:22:56;15.52;;;9.13;;
9789;SDS011;4934;50.852;8.098;2022-12-05T13:25:23;19.55;;;10.02;;
9789;SDS011;4934;50.852;8.098;2022-12-05T13:27:54;17.23;;;8.15;;
9789;SDS011;4934;50.852;8.098;2022-12-05T13:30:23;20.23;;;9.05;;
9789;SDS011;4934;50.852;8.098;2022-12-05T13:33:00;18.35;;;9.57;;
9789;SDS011;4934;50.852;8.098;2022-12-05T13:35:35;21.48;;;9.93;;
9789;SDS011;4934;50.852;8.098;2022-12-05T13:38:30;22.27;;;9.25;;
9789;SDS011;4934;50.852;8.098;2022-12-05T13:41:21;20.33;;;9.80;;
9789;SDS011;4934;50.852;8.098;2022-12-05T13:44:24;20.15;;;9.73;;
9789;SDS011;4934;50.852;8.098;2022-12-05T13:50:01;21.33;;;9.82;;
9789;SDS011;4934;50.852;8.098;2022-12-05T13:52:54;20.88;;;10.02;;
9789;SDS011;4934;50.852;8.098;2022-12-05T13:55:34;20.08;;;10.77;;
9789;SDS011;4934;50.852;8.098;2022-12-05T13:58:02;21.38;;;9.57;;
9789;SDS011;4934;50.852;8.098;2022-12-05T14:00:49;27.17;;;11.00;;
9789;SDS011;4934;50.852;8.098;2022-12-05T14:06:05;23.52;;;10.52;;
9789;SDS011;4934;50.852;8.098;2022-12-05T14:15:51;24.08;;;11.35;;
9789;SDS011;4934;50.852;8.098;2022-12-05T14:26:35;21.73;;;10.45;;
9789;SDS011;4934;50.852;8.098;2022-12-05T14:37:30;25.27;;;11.27;;
9789;SDS011;4934;50.852;8.098;2022-12-05T14:43:05;22.65;;;10.77;;
9789;SDS011;4934;50.852;8.098;2022-12-05T14:45:32;21.98;;;11.75;;
9789;SDS011;4934;50.852;8.098;2022-12-05T14:50:44;23.33;;;10.15;;
9789;SDS011;4934;50.852;8.098;2022-12-05T14:55:47;18.60;;;10.23;;
9789;SDS011;4934;50.852;8.098;2022-12-05T14:58:44;21.33;;;10.38;;
9789;SDS011;4934;50.852;8.098;2022-12-05T15:03:58;20.00;;;9.93;;
9789;SDS011;4934;50.852;8.098;2022-12-05T15:06:28;24.00;;;11.68;;
9789;SDS011;4934;50.852;8.098;2022-12-05T15:08:56;19.40;;;9.75;;
9789;SDS011;4934;50.852;8.098;2022-12-05T15:11:25;25.35;;;11.27;;
9789;SDS011;4934;50.852;8.098;2022-12-05T15:14:09;20.17;;;9.98;;
9789;SDS011;4934;50.852;8.098;2022-12-05T15:16:44;22.73;;;10.02;;
9789;SDS011;4934;50.852;8.098;2022-12-05T15:19:14;21.77;;;9.88;;
9789;SDS011;4934;50.852;8.098;2022-12-05T15:22:01;21.35;;;10.23;;
9789;SDS011;4934;50.852;8.098;2022-12-05T15:27:02;26.33;;;11.05;;
9789;SDS011;4934;50.852;8.098;2022-12-05T15:29:32;23.80;;;10.50;;
9789;SDS011;4934;50.852;8.098;2022-12-05T15:40:14;19.05;;;10.00;;
9789;SDS011;4934;50.852;8.098;2022-12-05T15:42:48;16.40;;;8.23;;
9789;SDS011;4934;50.852;8.098;2022-12-05T15:45:22;17.30;;;9.27;;
9789;SDS011;4934;50.852;8.098;2022-12-05T15:53:55;16.00;;;8.52;;
9789;SDS011;4934;50.852;8.098;2022-12-05T15:59:17;16.90;;;9.18;;
9789;SDS011;4934;50.852;8.098;2022-12-05T16:04:58;15.88;;;8.95;;
9789;SDS011;4934;50.852;8.098;2022-12-05T16:07:31;16.98;;;9.52;;
9789;SDS011;4934;50.852;8.098;2022-12-05T16:10:04;18.50;;;9.13;;
9789;SDS011;4934;50.852;8.098;2022-12-05T16:12:38;17.85;;;8.95;;
9789;SDS011;4934;50.852;8.098;2022-12-05T16:17:55;15.98;;;9.05;;
9789;SDS011;4934;50.852;8.098;2022-12-05T16:23:28;17.73;;;9.23;;
9789;SDS011;4934;50.852;8.098;2022-12-05T16:29:00;18.08;;;9.98;;
9789;SDS011;4934;50.852;8.098;2022-12-05T16:31:27;18.42;;;10.30;;
9789;SDS011;4934;50.852;8.098;2022-12-05T16:36:32;19.05;;;10.45;;
9789;SDS011;4934;50.852;8.098;2022-12-05T16:38:59;18.67;;;10.23;;
9789;SDS011;4934;50.852;8.098;2022-12-05T16:47:22;20.97;;;10.73;;
9789;SDS011;4934;50.852;8.098;2022-12-05T16:49:50;18.23;;;9.77;;
9789;SDS011;4934;50.852;8.098;2022-12-05T16:52:16;23.87;;;11.10;;
9789;SDS011;4934;50.852;8.098;2022-12-05T16:54:44;23.20;;;11.17;;
9789;SDS011;4934;50.852;8.098;2022-12-05T16:57:12;21.30;;;10.60;;
9789;SDS011;4934;50.852;8.098;2022-12-05T16:59:41;22.02;;;10.00;;
9789;SDS011;4934;50.852;8.098;2022-12-05T17:02:10;28.55;;;11.63;;
9789;SDS011;4934;50.852;8.098;2022-12-05T17:04:38;26.23;;;11.03;;
9789;SDS011;4934;50.852;8.098;2022-12-05T17:07:17;24.17;;;11.82;;
9789;SDS011;4934;50.852;8.098;2022-12-05T17:09:43;21.50;;;10.63;;
9789;SDS011;4934;50.852;8.098;2022-12-05T17:12:10;20.67;;;10.03;;
9789;SDS011;4934;50.852;8.098;2022-12-05T17:14:42;20.10;;;9.63;;
9789;SDS011;4934;50.852;8.098;2022-12-05T17:17:12;22.98;;;11.18;;
9789;SDS011;4934;50.852;8.098;2022-12-05T17:19:43;22.17;;;11.37;;
9789;SDS011;4934;50.852;8.098;2022-12-05T17:22:11;21.10;;;9.97;;
9789;SDS011;4934;50.852;8.098;2022-12-05T17:24:38;29.10;;;13.47;;
9789;SDS011;4934;50.852;8.098;2022-12-05T17:27:11;42.13;;;16.53;;
9789;SDS011;4934;50.852;8.098;2022-12-05T17:29:51;26.00;;;11.98;;
9789;SDS011;4934;50.852;8.098;2022-12-05T17:32:19;24.93;;;11.80;;
9789;SDS011;4934;50.852;8.098;2022-12-05T17:34:44;38.63;;;18.17;;
9789;SDS011;4934;50.852;8.098;2022-12-05T17:39:42;20.90;;;10.52;;
9789;SDS011;4934;50.852;8.098;2022-12-05T17:42:10;23.27;;;11.67;;
9789;SDS011;4934;50.852;8.098;2022-12-05T17:44:36;25.98;;;11.02;;
9789;SDS011;4934;50.852;8.098;2022-12-05T17:47:01;21.77;;;10.03;;
9789;SDS011;4934;50.852;8.098;2022-12-05T17:49:27;26.70;;;11.53;;
9789;SDS011;4934;50.852;8.098;2022-12-05T17:51:56;22.80;;;11.20;;
9789;SDS011;4934;50.852;8.098;2022-12-05T17:54:24;27.13;;;12.40;;
9789;SDS011;4934;50.852;8.098;2022-12-05T18:02:10;25.23;;;12.20;;
9789;SDS011;4934;50.852;8.098;2022-12-05T18:04:36;25.52;;;10.57;;
9789;SDS011;4934;50.852;8.098;2022-12-05T18:07:02;24.90;;;12.67;;
9789;SDS011;4934;50.852;8.098;2022-12-05T18:09:28;27.93;;;11.80;;
9789;SDS011;4934;50.852;8.098;2022-12-05T18:12:12;29.90;;;12.43;;
9789;SDS011;4934;50.852;8.098;2022-12-05T18:14:37;25.80;;;11.67;;
9789;SDS011;4934;50.852;8.098;2022-12-05T18:17:03;25.27;;;11.23;;
9789;SDS011;4934;50.852;8.098;2022-12-05T18:19:29;23.33;;;11.48;;
9789;SDS011;4934;50.852;8.098;2022-12-05T18:21:55;24.77;;;10.83;;
9789;SDS011;4934;50.852;8.098;2022-12-05T18:24:30;26.30;;;11.77;;
9789;SDS011;4934;50.852;8.098;2022-12-05T18:26:55;24.33;;;11.03;;
9789;SDS011;4934;50.852;8.098;2022-12-05T18:32:02;27.52;;;12.25;;
9789;SDS011;4934;50.852;8.098;2022-12-05T18:34:30;28.17;;;12.02;;
9789;SDS011;4934;50.852;8.098;2022-12-05T18:36:56;25.90;;;12.18;;
9789;SDS011;4934;50.852;8.098;2022-12-05T18:39:24;27.55;;;13.48;;
9789;SDS011;4934;50.852;8.098;2022-12-05T18:41:51;30.10;;;13.90;;
9789;SDS011;4934;50.852;8.098;2022-12-05T18:44:18;29.42;;;13.43;;
9789;SDS011;4934;50.852;8.098;2022-12-05T18:46:43;28.73;;;13.55;;
9789;SDS011;4934;50.852;8.098;2022-12-05T18:49:10;26.80;;;12.65;;
9789;SDS011;4934;50.852;8.098;2022-12-05T18:51:37;23.33;;;12.07;;
9789;SDS011;4934;50.852;8.098;2022-12-05T18:54:03;25.75;;;11.95;;
9789;SDS011;4934;50.852;8.098;2022-12-05T18:56:30;29.02;;;12.93;;
9789;SDS011;4934;50.852;8.098;2022-12-05T18:59:22;28.67;;;13.07;;
9789;SDS011;4934;50.852;8.098;2022-12-05T19:01:47;28.13;;;12.25;;
9789;SDS011;4934;50.852;8.098;2022-12-05T19:04:21;23.60;;;11.17;;
9789;SDS011;4934;50.852;8.098;2022-12-05T19:06:51;20.63;;;10.60;;
9789;SDS011;4934;50.852;8.098;2022-12-05T19:09:18;22.87;;;11.10;;
9789;SDS011;4934;50.852;8.098;2022-12-05T19:11:46;22.40;;;10.75;;
9789;SDS011;4934;50.852;8.098;2022-12-05T19:14:13;19.05;;;9.27;;
9789;SDS011;4934;50.852;8.098;2022-12-05T19:16:40;19.87;;;9.53;;
9789;SDS011;4934;50.852;8.098;2022-12-05T19:19:06;19.48;;;10.05;;
9789;SDS011;4934;50.852;8.098;2022-12-05T19:21:34;20.48;;;9.98;;
9789;SDS011;4934;50.852;8.098;2022-12-05T19:24:01;15.83;;;8.37;;
9789;SDS011;4934;50.852;8.098;2022-12-05T19:26:35;19.30;;;8.87;;
9789;SDS011;4934;50.852;8.098;2022-12-05T19:29:02;23.97;;;10.40;;
9789;SDS011;4934;50.852;8.098;2022-12-05T19:31:28;19.97;;;8.57;;